sensor_id;sensor_type;location;lat;lon;timestamp;P1;durP1;ratioP1;P2;durP2;ratioP2
71046;SDS011;58703;48.978;8.982;2022-09-06T00:01:33;1.85;;;0.98;;
71046;SDS011;58703;48.978;8.982;2022-09-06T00:03:58;1.87;;;1.10;;
71046;SDS011;58703;48.978;8.982;2022-09-06T00:06:24;1.00;;;1.00;;
71046;SDS011;58703;48.978;8.982;2022-09-06T00:08:49;1.30;;;1.20;;
71046;SDS011;58703;48.978;8.982;2022-09-06T00:11:15;0.90;;;0.90;;
71046;SDS011;58703;48.978;8.982;2022-09-06T00:13:42;1.38;;;1.27;;
71046;SDS011;58703;48.978;8.982;2022-09-06T00:16:09;1.63;;;1.50;;
71046;SDS011;58703;48.978;8.982;2022-09-06T00:18:38;1.83;;;1.33;;
71046;SDS011;58703;48.978;8.982;2022-09-06T00:21:04;1.70;;;1.40;;
71046;SDS011;58703;48.978;8.982;2022-09-06T00:23:39;1.88;;;1.30;;
71046;SDS011;58703;48.978;8.982;2022-09-06T00:26:04;1.40;;;1.30;;
71046;SDS011;58703;48.978;8.982;2022-09-06T00:28:30;2.00;;;1.67;;
71046;SDS011;58703;48.978;8.982;2022-09-06T00:30:56;4.70;;;1.40;;
71046;SDS011;58703;48.978;8.982;2022-09-06T00:33:22;1.75;;;1.65;;
71046;SDS011;58703;48.978;8.982;2022-09-06T00:35:48;2.30;;;1.70;;
71046;SDS011;58703;48.978;8.982;2022-09-06T00:38:14;1.77;;;1.58;;
71046;SDS011;58703;48.978;8.982;2022-09-06T00:40:39;1.98;;;1.27;;
71046;SDS011;58703;48.978;8.982;2022-09-06T00:43:06;3.00;;;1.00;;
71046;SDS011;58703;48.978;8.982;2022-09-06T00:45:33;1.10;;;1.00;;
71046;SDS011;58703;48.978;8.982;2022-09-06T00:47:58;1.05;;;1.00;;
71046;SDS011;58703;48.978;8.982;2022-09-06T00:50:26;1.20;;;1.10;;
71046;SDS011;58703;48.978;8.982;2022-09-06T00:52:52;1.83;;;0.97;;
71046;SDS011;58703;48.978;8.982;2022-09-06T00:55:18;1.10;;;1.10;;
71046;SDS011;58703;48.978;8.982;2022-09-06T00:57:45;1.10;;;1.00;;
71046;SDS011;58703;48.978;8.982;2022-09-06T01:00:15;0.75;;;0.75;;
71046;SDS011;58703;48.978;8.982;2022-09-06T01:02:41;1.47;;;1.37;;
71046;SDS011;58703;48.978;8.982;2022-09-06T01:05:07;1.55;;;1.45;;
71046;SDS011;58703;48.978;8.982;2022-09-06T01:13:15;0.95;;;0.80;;
71046;SDS011;58703;48.978;8.982;2022-09-06T01:27:30;1.38;;;1.27;;
71046;SDS011;58703;48.978;8.982;2022-09-06T01:32:46;1.98;;;1.67;;
71046;SDS011;58703;48.978;8.982;2022-09-06T01:35:47;1.23;;;1.13;;
71046;SDS011;58703;48.978;8.982;2022-09-06T01:38:17;1.80;;;1.67;;
71046;SDS011;58703;48.978;8.982;2022-09-06T01:40:43;1.57;;;1.47;;
71046;SDS011;58703;48.978;8.982;2022-09-06T01:43:09;1.50;;;1.40;;
71046;SDS011;58703;48.978;8.982;2022-09-06T01:51:23;1.87;;;1.30;;
71046;SDS011;58703;48.978;8.982;2022-09-06T01:54:06;1.50;;;1.40;;
71046;SDS011;58703;48.978;8.982;2022-09-06T02:02:25;2.55;;;1.13;;
71046;SDS011;58703;48.978;8.982;2022-09-06T02:04:57;3.40;;;1.50;;
71046;SDS011;58703;48.978;8.982;2022-09-06T02:07:30;4.05;;;1.88;;
71046;SDS011;58703;48.978;8.982;2022-09-06T02:09:59;1.25;;;1.17;;
71046;SDS011;58703;48.978;8.982;2022-09-06T02:12:31;2.17;;;1.70;;
71046;SDS011;58703;48.978;8.982;2022-09-06T02:15:00;1.80;;;1.65;;
71046;SDS011;58703;48.978;8.982;2022-09-06T02:17:31;2.10;;;1.43;;
71046;SDS011;58703;48.978;8.982;2022-09-06T02:22:37;2.65;;;1.65;;
71046;SDS011;58703;48.978;8.982;2022-09-06T02:25:06;1.85;;;1.60;;
71046;SDS011;58703;48.978;8.982;2022-09-06T02:27:34;1.60;;;1.40;;
71046;SDS011;58703;48.978;8.982;2022-09-06T02:30:02;1.67;;;1.57;;
71046;SDS011;58703;48.978;8.982;2022-09-06T02:32:29;1.67;;;1.58;;
71046;SDS011;58703;48.978;8.982;2022-09-06T02:34:57;1.90;;;1.70;;
71046;SDS011;58703;48.978;8.982;2022-09-06T02:37:23;2.40;;;2.00;;
71046;SDS011;58703;48.978;8.982;2022-09-06T02:39:53;1.38;;;1.27;;
71046;SDS011;58703;48.978;8.982;2022-09-06T02:42:20;1.58;;;1.48;;
71046;SDS011;58703;48.978;8.982;2022-09-06T02:44:47;1.80;;;1.70;;
71046;SDS011;58703;48.978;8.982;2022-09-06T02:47:13;2.03;;;1.85;;
71046;SDS011;58703;48.978;8.982;2022-09-06T02:49:39;1.80;;;1.70;;
71046;SDS011;58703;48.978;8.982;2022-09-06T02:52:05;1.73;;;1.63;;
71046;SDS011;58703;48.978;8.982;2022-09-06T02:54:30;1.43;;;1.33;;
71046;SDS011;58703;48.978;8.982;2022-09-06T02:56:56;1.88;;;1.60;;
71046;SDS011;58703;48.978;8.982;2022-09-06T02:59:22;2.63;;;1.83;;
71046;SDS011;58703;48.978;8.982;2022-09-06T03:01:47;1.43;;;1.33;;
71046;SDS011;58703;48.978;8.982;2022-09-06T03:04:13;1.75;;;1.65;;
71046;SDS011;58703;48.978;8.982;2022-09-06T03:06:38;1.70;;;1.60;;
71046;SDS011;58703;48.978;8.982;2022-09-06T03:09:04;2.20;;;1.90;;
71046;SDS011;58703;48.978;8.982;2022-09-06T03:11:29;1.70;;;1.60;;
71046;SDS011;58703;48.978;8.982;2022-09-06T03:13:55;1.67;;;1.53;;
71046;SDS011;58703;48.978;8.982;2022-09-06T03:16:20;1.87;;;1.73;;
71046;SDS011;58703;48.978;8.982;2022-09-06T03:18:46;2.25;;;1.92;;
71046;SDS011;58703;48.978;8.982;2022-09-06T03:21:12;3.47;;;2.20;;
71046;SDS011;58703;48.978;8.982;2022-09-06T03:23:38;2.37;;;1.77;;
71046;SDS011;58703;48.978;8.982;2022-09-06T03:26:04;1.80;;;1.70;;
71046;SDS011;58703;48.978;8.982;2022-09-06T03:28:31;3.40;;;2.15;;
71046;SDS011;58703;48.978;8.982;2022-09-06T03:30:56;1.90;;;1.73;;
71046;SDS011;58703;48.978;8.982;2022-09-06T03:33:22;1.70;;;1.57;;
71046;SDS011;58703;48.978;8.982;2022-09-06T03:35:55;3.88;;;1.83;;
71046;SDS011;58703;48.978;8.982;2022-09-06T03:38:22;1.48;;;1.35;;
71046;SDS011;58703;48.978;8.982;2022-09-06T03:40:49;1.95;;;1.73;;
71046;SDS011;58703;48.978;8.982;2022-09-06T03:43:16;1.88;;;1.70;;
71046;SDS011;58703;48.978;8.982;2022-09-06T03:45:45;1.70;;;1.60;;
71046;SDS011;58703;48.978;8.982;2022-09-06T03:48:15;3.50;;;2.20;;
71046;SDS011;58703;48.978;8.982;2022-09-06T03:50:45;4.32;;;1.85;;
71046;SDS011;58703;48.978;8.982;2022-09-06T03:53:12;4.05;;;2.42;;
71046;SDS011;58703;48.978;8.982;2022-09-06T03:55:38;2.38;;;2.15;;
71046;SDS011;58703;48.978;8.982;2022-09-06T03:58:04;2.43;;;2.10;;
71046;SDS011;58703;48.978;8.982;2022-09-06T04:00:30;1.77;;;1.67;;
71046;SDS011;58703;48.978;8.982;2022-09-06T04:02:57;2.67;;;1.77;;
71046;SDS011;58703;48.978;8.982;2022-09-06T04:05:23;2.42;;;2.20;;
71046;SDS011;58703;48.978;8.982;2022-09-06T04:07:49;2.30;;;2.10;;
71046;SDS011;58703;48.978;8.982;2022-09-06T04:10:15;2.73;;;2.53;;
71046;SDS011;58703;48.978;8.982;2022-09-06T04:12:41;2.55;;;2.13;;
71046;SDS011;58703;48.978;8.982;2022-09-06T04:15:07;3.10;;;2.37;;
71046;SDS011;58703;48.978;8.982;2022-09-06T04:17:33;2.53;;;2.33;;
71046;SDS011;58703;48.978;8.982;2022-09-06T04:19:59;3.67;;;2.20;;
71046;SDS011;58703;48.978;8.982;2022-09-06T04:22:25;3.53;;;2.40;;
71046;SDS011;58703;48.978;8.982;2022-09-06T04:24:50;2.30;;;2.10;;
71046;SDS011;58703;48.978;8.982;2022-09-06T04:27:16;2.35;;;2.15;;
71046;SDS011;58703;48.978;8.982;2022-09-06T04:29:41;2.23;;;2.07;;
71046;SDS011;58703;48.978;8.982;2022-09-06T04:32:07;2.42;;;2.00;;
71046;SDS011;58703;48.978;8.982;2022-09-06T04:34:32;4.33;;;2.37;;
71046;SDS011;58703;48.978;8.982;2022-09-06T04:36:58;2.83;;;2.30;;
71046;SDS011;58703;48.978;8.982;2022-09-06T04:39:24;2.60;;;2.33;;
71046;SDS011;58703;48.978;8.982;2022-09-06T04:41:49;2.40;;;2.10;;
71046;SDS011;58703;48.978;8.982;2022-09-06T04:44:15;3.90;;;2.20;;
71046;SDS011;58703;48.978;8.982;2022-09-06T04:46:40;2.47;;;1.95;;
71046;SDS011;58703;48.978;8.982;2022-09-06T04:49:06;2.37;;;2.17;;
71046;SDS011;58703;48.978;8.982;2022-09-06T04:51:32;3.00;;;2.30;;
71046;SDS011;58703;48.978;8.982;2022-09-06T04:53:58;3.17;;;2.30;;
71046;SDS011;58703;48.978;8.982;2022-09-06T04:56:24;3.08;;;2.38;;
71046;SDS011;58703;48.978;8.982;2022-09-06T04:58:51;2.05;;;1.88;;
71046;SDS011;58703;48.978;8.982;2022-09-06T05:01:17;3.50;;;2.53;;
71046;SDS011;58703;48.978;8.982;2022-09-06T05:03:44;2.25;;;2.05;;
71046;SDS011;58703;48.978;8.982;2022-09-06T05:06:18;2.60;;;2.15;;
71046;SDS011;58703;48.978;8.982;2022-09-06T05:08:45;3.17;;;2.60;;
71046;SDS011;58703;48.978;8.982;2022-09-06T05:11:11;4.60;;;2.80;;
71046;SDS011;58703;48.978;8.982;2022-09-06T05:13:37;3.38;;;2.90;;
71046;SDS011;58703;48.978;8.982;2022-09-06T05:16:04;4.05;;;2.40;;
71046;SDS011;58703;48.978;8.982;2022-09-06T05:18:32;2.80;;;2.60;;
71046;SDS011;58703;48.978;8.982;2022-09-06T05:21:00;3.22;;;2.72;;
71046;SDS011;58703;48.978;8.982;2022-09-06T05:23:26;3.05;;;2.58;;
71046;SDS011;58703;48.978;8.982;2022-09-06T05:25:52;3.97;;;3.10;;
71046;SDS011;58703;48.978;8.982;2022-09-06T05:28:18;2.53;;;2.33;;
71046;SDS011;58703;48.978;8.982;2022-09-06T05:30:50;2.85;;;2.35;;
71046;SDS011;58703;48.978;8.982;2022-09-06T05:33:21;2.75;;;2.45;;
71046;SDS011;58703;48.978;8.982;2022-09-06T05:35:47;3.38;;;2.55;;
71046;SDS011;58703;48.978;8.982;2022-09-06T05:38:14;3.00;;;2.17;;
71046;SDS011;58703;48.978;8.982;2022-09-06T05:40:42;3.07;;;2.77;;
71046;SDS011;58703;48.978;8.982;2022-09-06T05:43:09;3.90;;;2.80;;
71046;SDS011;58703;48.978;8.982;2022-09-06T05:45:35;2.72;;;2.42;;
71046;SDS011;58703;48.978;8.982;2022-09-06T05:48:00;5.57;;;3.00;;
71046;SDS011;58703;48.978;8.982;2022-09-06T05:50:28;3.03;;;2.40;;
71046;SDS011;58703;48.978;8.982;2022-09-06T05:52:57;3.00;;;2.70;;
71046;SDS011;58703;48.978;8.982;2022-09-06T05:55:22;2.65;;;2.45;;
71046;SDS011;58703;48.978;8.982;2022-09-06T05:57:49;3.83;;;2.77;;
71046;SDS011;58703;48.978;8.982;2022-09-06T06:00:15;2.70;;;2.50;;
71046;SDS011;58703;48.978;8.982;2022-09-06T06:02:41;3.40;;;2.73;;
71046;SDS011;58703;48.978;8.982;2022-09-06T06:05:06;3.50;;;2.33;;
71046;SDS011;58703;48.978;8.982;2022-09-06T06:07:32;2.63;;;2.20;;
71046;SDS011;58703;48.978;8.982;2022-09-06T06:09:58;3.15;;;2.85;;
71046;SDS011;58703;48.978;8.982;2022-09-06T06:12:23;3.60;;;2.50;;
71046;SDS011;58703;48.978;8.982;2022-09-06T06:14:49;2.90;;;2.70;;
71046;SDS011;58703;48.978;8.982;2022-09-06T06:17:14;6.17;;;3.20;;
71046;SDS011;58703;48.978;8.982;2022-09-06T06:19:40;3.08;;;2.78;;
71046;SDS011;58703;48.978;8.982;2022-09-06T06:22:07;2.53;;;2.33;;
71046;SDS011;58703;48.978;8.982;2022-09-06T06:24:33;4.07;;;2.88;;
71046;SDS011;58703;48.978;8.982;2022-09-06T06:26:59;2.95;;;2.75;;
71046;SDS011;58703;48.978;8.982;2022-09-06T06:29:25;3.20;;;2.90;;
71046;SDS011;58703;48.978;8.982;2022-09-06T06:31:51;2.92;;;2.63;;
71046;SDS011;58703;48.978;8.982;2022-09-06T06:34:18;2.97;;;2.67;;
71046;SDS011;58703;48.978;8.982;2022-09-06T06:36:46;4.47;;;2.55;;
71046;SDS011;58703;48.978;8.982;2022-09-06T06:39:12;3.88;;;2.80;;
71046;SDS011;58703;48.978;8.982;2022-09-06T06:41:37;4.93;;;2.50;;
71046;SDS011;58703;48.978;8.982;2022-09-06T06:44:04;3.53;;;2.77;;
71046;SDS011;58703;48.978;8.982;2022-09-06T06:46:30;4.10;;;2.50;;
71046;SDS011;58703;48.978;8.982;2022-09-06T06:48:58;2.88;;;2.58;;
71046;SDS011;58703;48.978;8.982;2022-09-06T06:51:25;3.38;;;2.58;;
71046;SDS011;58703;48.978;8.982;2022-09-06T06:53:52;3.40;;;2.83;;
71046;SDS011;58703;48.978;8.982;2022-09-06T06:56:28;4.07;;;3.05;;
71046;SDS011;58703;48.978;8.982;2022-09-06T06:58:56;4.80;;;2.67;;
71046;SDS011;58703;48.978;8.982;2022-09-06T07:01:23;3.92;;;2.45;;
71046;SDS011;58703;48.978;8.982;2022-09-06T07:03:50;3.75;;;3.00;;
71046;SDS011;58703;48.978;8.982;2022-09-06T07:06:17;3.58;;;2.58;;
71046;SDS011;58703;48.978;8.982;2022-09-06T07:08:43;3.47;;;3.00;;
71046;SDS011;58703;48.978;8.982;2022-09-06T07:11:10;2.80;;;2.50;;
71046;SDS011;58703;48.978;8.982;2022-09-06T07:13:37;3.85;;;2.40;;
71046;SDS011;58703;48.978;8.982;2022-09-06T07:16:10;3.20;;;2.83;;
71046;SDS011;58703;48.978;8.982;2022-09-06T07:18:41;3.90;;;2.37;;
71046;SDS011;58703;48.978;8.982;2022-09-06T07:21:14;4.57;;;2.67;;
71046;SDS011;58703;48.978;8.982;2022-09-06T07:23:41;3.22;;;2.88;;
71046;SDS011;58703;48.978;8.982;2022-09-06T07:26:12;3.15;;;2.35;;
71046;SDS011;58703;48.978;8.982;2022-09-06T07:28:39;4.00;;;2.65;;
71046;SDS011;58703;48.978;8.982;2022-09-06T07:31:05;3.40;;;2.40;;
71046;SDS011;58703;48.978;8.982;2022-09-06T07:33:30;2.83;;;2.43;;
71046;SDS011;58703;48.978;8.982;2022-09-06T07:35:59;4.75;;;2.72;;
71046;SDS011;58703;48.978;8.982;2022-09-06T07:38:27;2.38;;;2.17;;
71046;SDS011;58703;48.978;8.982;2022-09-06T07:41:03;2.40;;;2.20;;
71046;SDS011;58703;48.978;8.982;2022-09-06T07:43:30;2.33;;;2.10;;
71046;SDS011;58703;48.978;8.982;2022-09-06T07:45:57;3.65;;;2.60;;
71046;SDS011;58703;48.978;8.982;2022-09-06T07:48:22;2.90;;;2.10;;
71046;SDS011;58703;48.978;8.982;2022-09-06T07:50:48;2.77;;;2.53;;
71046;SDS011;58703;48.978;8.982;2022-09-06T07:53:13;3.28;;;2.40;;
71046;SDS011;58703;48.978;8.982;2022-09-06T07:55:39;2.00;;;1.80;;
71046;SDS011;58703;48.978;8.982;2022-09-06T07:58:05;2.53;;;2.23;;
71046;SDS011;58703;48.978;8.982;2022-09-06T08:00:30;2.80;;;2.13;;
71046;SDS011;58703;48.978;8.982;2022-09-06T08:02:56;2.30;;;2.10;;
71046;SDS011;58703;48.978;8.982;2022-09-06T08:05:21;3.35;;;2.28;;
71046;SDS011;58703;48.978;8.982;2022-09-06T08:07:47;2.93;;;2.37;;
71046;SDS011;58703;48.978;8.982;2022-09-06T08:10:12;2.60;;;2.40;;
71046;SDS011;58703;48.978;8.982;2022-09-06T08:12:38;2.22;;;2.03;;
71046;SDS011;58703;48.978;8.982;2022-09-06T08:15:04;4.87;;;1.80;;
71046;SDS011;58703;48.978;8.982;2022-09-06T08:17:29;2.38;;;2.05;;
71046;SDS011;58703;48.978;8.982;2022-09-06T08:20:00;2.08;;;1.88;;
71046;SDS011;58703;48.978;8.982;2022-09-06T08:22:30;2.97;;;2.40;;
71046;SDS011;58703;48.978;8.982;2022-09-06T08:24:56;2.50;;;2.30;;
71046;SDS011;58703;48.978;8.982;2022-09-06T08:27:21;1.90;;;1.80;;
71046;SDS011;58703;48.978;8.982;2022-09-06T08:29:47;2.05;;;1.90;;
71046;SDS011;58703;48.978;8.982;2022-09-06T08:32:12;2.07;;;1.87;;
71046;SDS011;58703;48.978;8.982;2022-09-06T08:34:38;2.10;;;1.83;;
71046;SDS011;58703;48.978;8.982;2022-09-06T08:37:04;2.92;;;2.20;;
71046;SDS011;58703;48.978;8.982;2022-09-06T08:39:29;1.53;;;1.43;;
71046;SDS011;58703;48.978;8.982;2022-09-06T08:41:55;3.47;;;2.30;;
71046;SDS011;58703;48.978;8.982;2022-09-06T08:44:30;1.98;;;1.77;;
71046;SDS011;58703;48.978;8.982;2022-09-06T08:46:59;1.85;;;1.75;;
71046;SDS011;58703;48.978;8.982;2022-09-06T08:55:29;1.90;;;1.80;;
71046;SDS011;58703;48.978;8.982;2022-09-06T08:58:19;3.35;;;1.98;;
71046;SDS011;58703;48.978;8.982;2022-09-06T09:01:07;1.92;;;1.73;;
71046;SDS011;58703;48.978;8.982;2022-09-06T09:03:38;2.55;;;2.00;;
71046;SDS011;58703;48.978;8.982;2022-09-06T09:06:06;2.83;;;1.90;;
71046;SDS011;58703;48.978;8.982;2022-09-06T09:11:09;2.53;;;2.33;;
71046;SDS011;58703;48.978;8.982;2022-09-06T09:16:10;2.05;;;1.95;;
71046;SDS011;58703;48.978;8.982;2022-09-06T09:18:38;2.15;;;1.95;;
71046;SDS011;58703;48.978;8.982;2022-09-06T09:21:06;2.23;;;2.03;;
71046;SDS011;58703;48.978;8.982;2022-09-06T09:23:33;1.95;;;1.75;;
71046;SDS011;58703;48.978;8.982;2022-09-06T09:26:03;3.22;;;1.95;;
71046;SDS011;58703;48.978;8.982;2022-09-06T09:28:33;1.90;;;1.80;;
71046;SDS011;58703;48.978;8.982;2022-09-06T09:30:59;1.88;;;1.45;;
71046;SDS011;58703;48.978;8.982;2022-09-06T09:35:58;1.90;;;1.80;;
71046;SDS011;58703;48.978;8.982;2022-09-06T09:38:29;1.60;;;1.50;;
71046;SDS011;58703;48.978;8.982;2022-09-06T09:41:02;3.17;;;2.25;;
71046;SDS011;58703;48.978;8.982;2022-09-06T09:51:30;2.70;;;2.10;;
71046;SDS011;58703;48.978;8.982;2022-09-06T09:53:58;1.63;;;1.52;;
71046;SDS011;58703;48.978;8.982;2022-09-06T09:56:32;1.63;;;1.53;;
71046;SDS011;58703;48.978;8.982;2022-09-06T09:59:14;1.70;;;1.60;;
71046;SDS011;58703;48.978;8.982;2022-09-06T10:01:57;2.08;;;1.70;;
71046;SDS011;58703;48.978;8.982;2022-09-06T10:04:35;1.85;;;1.75;;
71046;SDS011;58703;48.978;8.982;2022-09-06T10:09:56;3.30;;;2.10;;
71046;SDS011;58703;48.978;8.982;2022-09-06T10:12:34;2.08;;;1.63;;
71046;SDS011;58703;48.978;8.982;2022-09-06T10:15:05;2.70;;;1.60;;
71046;SDS011;58703;48.978;8.982;2022-09-06T10:17:36;1.13;;;1.13;;
71046;SDS011;58703;48.978;8.982;2022-09-06T10:20:11;1.70;;;1.52;;
71046;SDS011;58703;48.978;8.982;2022-09-06T10:28:08;1.65;;;1.55;;
71046;SDS011;58703;48.978;8.982;2022-09-06T10:36:32;2.63;;;1.42;;
71046;SDS011;58703;48.978;8.982;2022-09-06T10:42:10;1.95;;;1.52;;
71046;SDS011;58703;48.978;8.982;2022-09-06T10:45:02;1.50;;;1.23;;
71046;SDS011;58703;48.978;8.982;2022-09-06T10:47:55;3.60;;;1.55;;
71046;SDS011;58703;48.978;8.982;2022-09-06T10:50:21;2.03;;;1.75;;
71046;SDS011;58703;48.978;8.982;2022-09-06T10:52:57;1.38;;;1.27;;
71046;SDS011;58703;48.978;8.982;2022-09-06T10:55:30;1.85;;;1.38;;
71046;SDS011;58703;48.978;8.982;2022-09-06T10:57:58;1.30;;;1.10;;
71046;SDS011;58703;48.978;8.982;2022-09-06T11:00:31;1.58;;;1.48;;
71046;SDS011;58703;48.978;8.982;2022-09-06T11:03:04;2.25;;;1.40;;
71046;SDS011;58703;48.978;8.982;2022-09-06T11:05:36;3.88;;;1.67;;
71046;SDS011;58703;48.978;8.982;2022-09-06T11:08:09;2.47;;;1.10;;
71046;SDS011;58703;48.978;8.982;2022-09-06T11:10:45;1.55;;;1.45;;
71046;SDS011;58703;48.978;8.982;2022-09-06T11:13:15;2.47;;;1.20;;
71046;SDS011;58703;48.978;8.982;2022-09-06T11:26:59;2.03;;;1.10;;
71046;SDS011;58703;48.978;8.982;2022-09-06T11:29:31;1.50;;;1.40;;
71046;SDS011;58703;48.978;8.982;2022-09-06T11:31:59;2.03;;;1.48;;
71046;SDS011;58703;48.978;8.982;2022-09-06T11:34:30;1.37;;;1.23;;
71046;SDS011;58703;48.978;8.982;2022-09-06T11:36:58;2.83;;;1.10;;
71046;SDS011;58703;48.978;8.982;2022-09-06T11:39:35;1.67;;;1.58;;
71046;SDS011;58703;48.978;8.982;2022-09-06T11:42:06;1.60;;;0.95;;
71046;SDS011;58703;48.978;8.982;2022-09-06T11:55:25;1.27;;;1.00;;
71046;SDS011;58703;48.978;8.982;2022-09-06T12:00:43;2.87;;;1.80;;
71046;SDS011;58703;48.978;8.982;2022-09-06T12:03:58;0.95;;;0.90;;
71046;SDS011;58703;48.978;8.982;2022-09-06T12:06:15;1.17;;;1.13;;
71046;SDS011;58703;48.978;8.982;2022-09-06T12:08:48;1.02;;;0.90;;
71046;SDS011;58703;48.978;8.982;2022-09-06T12:11:20;1.02;;;0.80;;
71046;SDS011;58703;48.978;8.982;2022-09-06T12:13:59;1.77;;;1.07;;
71046;SDS011;58703;48.978;8.982;2022-09-06T12:24:52;2.42;;;1.30;;
71046;SDS011;58703;48.978;8.982;2022-09-06T12:27:20;1.50;;;1.17;;
71046;SDS011;58703;48.978;8.982;2022-09-06T12:29:51;1.05;;;1.00;;
71046;SDS011;58703;48.978;8.982;2022-09-06T12:32:20;0.73;;;0.73;;
71046;SDS011;58703;48.978;8.982;2022-09-06T12:34:49;0.88;;;0.75;;
71046;SDS011;58703;48.978;8.982;2022-09-06T12:37:28;2.30;;;0.80;;
71046;SDS011;58703;48.978;8.982;2022-09-06T12:40:04;1.53;;;1.10;;
71046;SDS011;58703;48.978;8.982;2022-09-06T12:42:32;1.02;;;0.93;;
71046;SDS011;58703;48.978;8.982;2022-09-06T12:45:01;0.75;;;0.75;;
71046;SDS011;58703;48.978;8.982;2022-09-06T12:47:30;1.27;;;1.13;;
71046;SDS011;58703;48.978;8.982;2022-09-06T12:55:27;0.85;;;0.85;;
71046;SDS011;58703;48.978;8.982;2022-09-06T12:57:57;0.95;;;0.90;;
71046;SDS011;58703;48.978;8.982;2022-09-06T13:00:25;1.52;;;1.00;;
71046;SDS011;58703;48.978;8.982;2022-09-06T13:03:03;1.02;;;1.02;;
71046;SDS011;58703;48.978;8.982;2022-09-06T13:05:33;1.13;;;1.00;;
71046;SDS011;58703;48.978;8.982;2022-09-06T13:08:03;1.40;;;1.23;;
71046;SDS011;58703;48.978;8.982;2022-09-06T13:10:29;0.93;;;0.93;;
71046;SDS011;58703;48.978;8.982;2022-09-06T13:12:56;1.60;;;0.93;;
71046;SDS011;58703;48.978;8.982;2022-09-06T13:15:26;1.43;;;1.27;;
71046;SDS011;58703;48.978;8.982;2022-09-06T13:21:04;1.02;;;1.02;;
71046;SDS011;58703;48.978;8.982;2022-09-06T13:23:39;0.75;;;0.70;;
71046;SDS011;58703;48.978;8.982;2022-09-06T13:26:06;2.67;;;1.70;;
71046;SDS011;58703;48.978;8.982;2022-09-06T13:28:32;0.90;;;0.90;;
71046;SDS011;58703;48.978;8.982;2022-09-06T13:31:06;1.00;;;1.00;;
71046;SDS011;58703;48.978;8.982;2022-09-06T13:33:41;1.13;;;1.00;;
71046;SDS011;58703;48.978;8.982;2022-09-06T13:41:04;4.00;;;1.60;;
71046;SDS011;58703;48.978;8.982;2022-09-06T13:43:45;1.85;;;1.30;;
71046;SDS011;58703;48.978;8.982;2022-09-06T13:46:12;3.87;;;1.43;;
71046;SDS011;58703;48.978;8.982;2022-09-06T13:48:41;2.13;;;1.58;;
71046;SDS011;58703;48.978;8.982;2022-09-06T13:51:08;1.67;;;1.25;;
71046;SDS011;58703;48.978;8.982;2022-09-06T13:53:33;1.50;;;1.40;;
71046;SDS011;58703;48.978;8.982;2022-09-06T13:55:59;2.00;;;1.77;;
71046;SDS011;58703;48.978;8.982;2022-09-06T13:58:25;4.57;;;1.13;;
71046;SDS011;58703;48.978;8.982;2022-09-06T14:00:52;1.20;;;1.20;;
71046;SDS011;58703;48.978;8.982;2022-09-06T14:03:22;1.20;;;1.20;;
71046;SDS011;58703;48.978;8.982;2022-09-06T14:05:51;1.17;;;1.08;;
71046;SDS011;58703;48.978;8.982;2022-09-06T14:08:16;0.88;;;0.88;;
71046;SDS011;58703;48.978;8.982;2022-09-06T14:10:42;0.90;;;0.90;;
71046;SDS011;58703;48.978;8.982;2022-09-06T14:13:07;1.10;;;1.10;;
71046;SDS011;58703;48.978;8.982;2022-09-06T14:15:34;1.67;;;1.00;;
71046;SDS011;58703;48.978;8.982;2022-09-06T14:17:59;1.90;;;0.80;;
71046;SDS011;58703;48.978;8.982;2022-09-06T14:20:25;1.67;;;1.10;;
71046;SDS011;58703;48.978;8.982;2022-09-06T14:22:50;2.20;;;1.23;;
71046;SDS011;58703;48.978;8.982;2022-09-06T14:25:16;0.63;;;0.63;;
71046;SDS011;58703;48.978;8.982;2022-09-06T14:27:41;0.77;;;0.77;;
71046;SDS011;58703;48.978;8.982;2022-09-06T14:30:07;3.00;;;1.10;;
71046;SDS011;58703;48.978;8.982;2022-09-06T14:32:33;2.67;;;0.85;;
71046;SDS011;58703;48.978;8.982;2022-09-06T14:34:59;1.02;;;1.02;;
71046;SDS011;58703;48.978;8.982;2022-09-06T14:37:26;1.50;;;0.80;;
71046;SDS011;58703;48.978;8.982;2022-09-06T14:39:51;0.80;;;0.60;;
71046;SDS011;58703;48.978;8.982;2022-09-06T14:42:17;6.53;;;1.10;;
71046;SDS011;58703;48.978;8.982;2022-09-06T14:44:43;0.70;;;0.70;;
71046;SDS011;58703;48.978;8.982;2022-09-06T14:47:08;0.87;;;0.63;;
71046;SDS011;58703;48.978;8.982;2022-09-06T14:49:35;2.03;;;0.90;;
71046;SDS011;58703;48.978;8.982;2022-09-06T14:52:00;1.20;;;0.90;;
71046;SDS011;58703;48.978;8.982;2022-09-06T14:54:26;1.05;;;0.73;;
71046;SDS011;58703;48.978;8.982;2022-09-06T14:56:52;1.17;;;1.17;;
71046;SDS011;58703;48.978;8.982;2022-09-06T14:59:17;1.55;;;0.90;;
71046;SDS011;58703;48.978;8.982;2022-09-06T15:01:43;1.00;;;1.00;;
71046;SDS011;58703;48.978;8.982;2022-09-06T15:04:09;1.23;;;1.07;;
71046;SDS011;58703;48.978;8.982;2022-09-06T15:06:35;2.95;;;1.13;;
71046;SDS011;58703;48.978;8.982;2022-09-06T15:09:03;1.45;;;1.27;;
71046;SDS011;58703;48.978;8.982;2022-09-06T15:11:36;1.88;;;1.30;;
71046;SDS011;58703;48.978;8.982;2022-09-06T15:14:04;2.47;;;1.52;;
71046;SDS011;58703;48.978;8.982;2022-09-06T15:16:51;1.03;;;0.93;;
71046;SDS011;58703;48.978;8.982;2022-09-06T15:19:20;1.60;;;1.45;;
71046;SDS011;58703;48.978;8.982;2022-09-06T15:21:46;2.55;;;1.63;;
71046;SDS011;58703;48.978;8.982;2022-09-06T15:24:12;1.60;;;1.23;;
71046;SDS011;58703;48.978;8.982;2022-09-06T15:26:39;1.80;;;0.80;;
71046;SDS011;58703;48.978;8.982;2022-09-06T15:29:06;1.10;;;1.10;;
71046;SDS011;58703;48.978;8.982;2022-09-06T15:31:33;0.93;;;0.90;;
71046;SDS011;58703;48.978;8.982;2022-09-06T15:33:59;1.00;;;1.00;;
71046;SDS011;58703;48.978;8.982;2022-09-06T15:36:25;0.90;;;0.90;;
71046;SDS011;58703;48.978;8.982;2022-09-06T15:38:52;1.92;;;1.25;;
71046;SDS011;58703;48.978;8.982;2022-09-06T15:41:24;1.50;;;1.48;;
71046;SDS011;58703;48.978;8.982;2022-09-06T15:43:53;1.27;;;1.17;;
71046;SDS011;58703;48.978;8.982;2022-09-06T15:48:58;0.97;;;0.97;;
71046;SDS011;58703;48.978;8.982;2022-09-06T15:51:24;1.65;;;1.00;;
71046;SDS011;58703;48.978;8.982;2022-09-06T15:53:50;0.93;;;0.93;;
71046;SDS011;58703;48.978;8.982;2022-09-06T15:56:16;1.03;;;0.93;;
71046;SDS011;58703;48.978;8.982;2022-09-06T15:58:42;0.80;;;0.80;;
71046;SDS011;58703;48.978;8.982;2022-09-06T16:01:13;0.53;;;0.53;;
71046;SDS011;58703;48.978;8.982;2022-09-06T16:03:41;0.75;;;0.63;;
71046;SDS011;58703;48.978;8.982;2022-09-06T16:06:10;0.70;;;0.60;;
71046;SDS011;58703;48.978;8.982;2022-09-06T16:08:37;0.90;;;0.77;;
71046;SDS011;58703;48.978;8.982;2022-09-06T16:11:07;0.93;;;0.93;;
71046;SDS011;58703;48.978;8.982;2022-09-06T16:13:38;1.27;;;1.27;;
71046;SDS011;58703;48.978;8.982;2022-09-06T16:16:06;0.88;;;0.80;;
71046;SDS011;58703;48.978;8.982;2022-09-06T16:18:34;1.00;;;1.00;;
71046;SDS011;58703;48.978;8.982;2022-09-06T16:21:04;0.52;;;0.52;;
71046;SDS011;58703;48.978;8.982;2022-09-06T16:23:42;1.03;;;1.03;;
71046;SDS011;58703;48.978;8.982;2022-09-06T16:26:12;1.17;;;0.70;;
71046;SDS011;58703;48.978;8.982;2022-09-06T16:28:38;0.60;;;0.40;;
71046;SDS011;58703;48.978;8.982;2022-09-06T16:31:04;0.90;;;0.80;;
71046;SDS011;58703;48.978;8.982;2022-09-06T16:33:32;1.35;;;1.15;;
71046;SDS011;58703;48.978;8.982;2022-09-06T16:35:59;0.80;;;0.80;;
71046;SDS011;58703;48.978;8.982;2022-09-06T16:38:29;0.80;;;0.65;;
71046;SDS011;58703;48.978;8.982;2022-09-06T16:40:56;1.02;;;1.02;;
71046;SDS011;58703;48.978;8.982;2022-09-06T16:43:23;0.80;;;0.80;;
71046;SDS011;58703;48.978;8.982;2022-09-06T16:45:59;0.90;;;0.90;;
71046;SDS011;58703;48.978;8.982;2022-09-06T16:48:27;0.80;;;0.80;;
71046;SDS011;58703;48.978;8.982;2022-09-06T16:50:53;0.85;;;0.85;;
71046;SDS011;58703;48.978;8.982;2022-09-06T16:53:19;0.73;;;0.73;;
71046;SDS011;58703;48.978;8.982;2022-09-06T16:55:45;2.55;;;0.77;;
71046;SDS011;58703;48.978;8.982;2022-09-06T16:58:11;1.17;;;0.60;;